createdAt,value
2022-11-10T00:02:09.822Z,18.08
2022-11-10T00:04:55.201Z,18.48
2022-11-10T00:07:40.538Z,18.67
2022-11-10T00:13:10.774Z,17.35
2022-11-10T00:16:17.932Z,18.85
2022-11-10T00:19:03.369Z,18.63
2022-11-10T00:21:48.737Z,18.45
2022-11-10T00:27:19.970Z,17.58
2022-11-10T00:32:51.050Z,17.38
2022-11-10T00:38:21.787Z,16.17
2022-11-10T00:43:52.314Z,16.08
2022-11-10T00:46:37.842Z,16.63
2022-11-10T00:52:08.542Z,17.65
2022-11-10T00:54:54.098Z,15.27
2022-11-10T01:00:24.673Z,16.35
2022-11-10T01:03:17.516Z,16.40
2022-11-10T01:06:08.324Z,15.90
2022-11-10T01:08:54.254Z,16.70
2022-11-10T01:11:39.490Z,16.38
2022-11-10T01:14:24.517Z,17.15
2022-11-10T01:17:09.769Z,16.77
2022-11-10T01:22:40.564Z,16.45
2022-11-10T01:25:25.946Z,16.77
2022-11-10T01:28:11.003Z,16.38
2022-11-10T01:33:42.971Z,17.42
2022-11-10T01:36:28.195Z,15.73
2022-11-10T01:41:58.412Z,15.55
2022-11-10T01:45:22.416Z,16.08
2022-11-10T01:48:10.058Z,16.52
2022-11-10T01:50:57.242Z,16.45
2022-11-10T01:53:46.516Z,16.40
2022-11-10T01:56:37.778Z,16.58
2022-11-10T01:59:27.463Z,16.25
2022-11-10T02:02:22.491Z,16.63
2022-11-10T02:05:08.474Z,16.27
2022-11-10T02:07:56.029Z,16.15
2022-11-10T02:10:41.525Z,16.67
2022-11-10T02:16:12.437Z,15.25
2022-11-10T02:18:57.949Z,15.23
2022-11-10T02:21:43.438Z,15.07
2022-11-10T02:24:28.909Z,15.80
2022-11-10T02:27:14.158Z,16.85
2022-11-10T02:32:44.566Z,14.95
2022-11-10T02:35:29.798Z,15.55
2022-11-10T02:38:15.465Z,16.52
2022-11-10T02:41:00.530Z,15.95
2022-11-10T02:46:31.093Z,16.23
2022-11-10T02:49:16.543Z,15.45
2022-11-10T02:52:01.667Z,14.55
2022-11-10T02:57:32.444Z,15.98
2022-11-10T03:00:18.442Z,14.77
2022-11-10T03:03:04.949Z,14.75
2022-11-10T03:05:50.037Z,15.30
2022-11-10T03:08:35.149Z,17.17
2022-11-10T03:14:05.585Z,15.23
2022-11-10T03:16:50.820Z,15.52
2022-11-10T03:19:36.238Z,15.35
2022-11-10T03:22:21.630Z,16.63
2022-11-10T03:27:52.643Z,14.90
2022-11-10T03:30:38.656Z,15.27
2022-11-10T03:33:24.794Z,15.20
2022-11-10T03:36:10.802Z,14.77
2022-11-10T03:38:56.905Z,16.38
2022-11-10T03:41:42.626Z,15.95
2022-11-10T03:47:12.922Z,15.02
2022-11-10T03:52:45.266Z,15.43
2022-11-10T03:55:30.402Z,16.02
2022-11-10T03:58:15.496Z,15.38
2022-11-10T04:01:00.550Z,16.70
2022-11-10T04:03:51.132Z,16.67
2022-11-10T04:06:55.327Z,16.45
2022-11-10T04:09:40.945Z,16.25
2022-11-10T04:12:44.553Z,16.55
2022-11-10T04:15:42.006Z,16.73
2022-11-10T04:18:29.294Z,17.83
2022-11-10T04:21:14.853Z,17.20
2022-11-10T04:24:00.109Z,17.83
2022-11-10T04:26:47.294Z,17.70
2022-11-10T04:29:32.634Z,16.65
2022-11-10T04:32:17.717Z,16.92
2022-11-10T04:37:48.582Z,19.60
2022-11-10T04:40:34.215Z,17.13
2022-11-10T04:43:19.613Z,18.20
2022-11-10T04:46:06.980Z,18.52
2022-11-10T04:48:53.517Z,18.30
2022-11-10T04:51:39.638Z,16.83
2022-11-10T04:54:25.857Z,17.27
2022-11-10T04:57:11.201Z,17.70
2022-11-10T04:59:56.812Z,17.08
2022-11-10T05:05:27.667Z,17.30
2022-11-10T05:08:13.129Z,17.05
2022-11-10T05:10:58.340Z,18.25
2022-11-10T05:16:30.434Z,17.98
2022-11-10T05:19:16.033Z,16.85
2022-11-10T05:22:01.057Z,18.77
2022-11-10T05:24:46.402Z,16.88
2022-11-10T05:27:31.988Z,17.27
2022-11-10T05:33:04.116Z,17.45
2022-11-10T05:35:50.383Z,17.70
2022-11-10T05:38:41.838Z,17.65
2022-11-10T05:41:28.340Z,17.38
2022-11-10T05:46:58.739Z,17.73
2022-11-10T05:52:29.583Z,17.40
2022-11-10T05:55:16.526Z,17.23
2022-11-10T05:58:01.630Z,20.42
2022-11-10T06:00:47.198Z,18.25
2022-11-10T06:03:33.068Z,18.02
2022-11-10T06:09:03.794Z,18.20
2022-11-10T06:14:34.106Z,17.33
2022-11-10T06:20:05.011Z,16.98
2022-11-10T06:23:05.494Z,16.40
2022-11-10T06:25:51.371Z,18.73
2022-11-10T06:28:37.125Z,16.83
2022-11-10T06:31:22.376Z,17.38
2022-11-10T06:34:08.316Z,18.13
2022-11-10T06:36:53.660Z,18.40
2022-11-10T06:42:24.123Z,17.48
2022-11-10T06:45:09.966Z,18.92
2022-11-10T06:48:02.480Z,19.15
2022-11-10T06:50:47.725Z,18.60
2022-11-10T06:59:04.515Z,17.65
2022-11-10T07:01:50.085Z,17.23
2022-11-10T07:07:20.981Z,17.07
2022-11-10T07:10:07.450Z,18.45
2022-11-10T07:12:57.515Z,17.75
2022-11-10T07:15:43.141Z,17.80
2022-11-10T07:21:13.342Z,18.75
2022-11-10T07:23:58.879Z,19.70
2022-11-10T07:29:29.355Z,19.98
2022-11-10T07:32:14.851Z,20.27
2022-11-10T07:35:00.060Z,20.50
2022-11-10T07:40:31.127Z,20.98
2022-11-10T07:43:16.682Z,22.10
2022-11-10T07:46:02.192Z,22.92
2022-11-10T07:48:47.588Z,22.50
2022-11-10T07:51:33.009Z,21.38
2022-11-10T07:54:18.457Z,21.20
2022-11-10T07:57:03.883Z,21.63
2022-11-10T08:02:38.163Z,21.20
2022-11-10T08:05:24.093Z,21.30
2022-11-10T08:08:09.697Z,20.83
2022-11-10T08:10:57.663Z,22.35
2022-11-10T08:13:43.107Z,21.30
2022-11-10T08:16:28.334Z,21.90
2022-11-10T08:19:13.583Z,23.73
2022-11-10T08:21:58.910Z,22.30
2022-11-10T08:24:44.390Z,22.17
2022-11-10T08:30:14.933Z,22.75
2022-11-10T08:33:02.712Z,23.42
2022-11-10T08:35:50.918Z,22.42
2022-11-10T08:38:38.120Z,21.50
2022-11-10T08:41:23.429Z,23.17
2022-11-10T08:44:11.015Z,22.77
2022-11-10T08:46:56.970Z,23.05
2022-11-10T08:49:42.323Z,22.20
2022-11-10T08:55:12.781Z,23.40
2022-11-10T08:58:03.122Z,23.15
2022-11-10T09:00:48.545Z,23.73
2022-11-10T09:03:34.023Z,24.77
2022-11-10T09:06:19.563Z,24.17
2022-11-10T09:11:50.237Z,25.25
2022-11-10T09:14:35.911Z,24.95
2022-11-10T09:20:08.345Z,23.60
2022-11-10T09:22:54.074Z,24.13
2022-11-10T09:25:40.381Z,25.23
2022-11-10T09:28:25.966Z,24.90
2022-11-10T09:31:11.282Z,25.83
2022-11-10T09:33:59.144Z,23.63
2022-11-10T09:36:44.366Z,24.20
2022-11-10T09:39:29.673Z,22.90
2022-11-10T09:42:33.878Z,24.55
2022-11-10T09:45:39.930Z,24.30
2022-11-10T09:48:25.396Z,24.77
2022-11-10T09:51:26.005Z,23.15
2022-11-10T09:54:17.019Z,23.65
2022-11-10T09:57:04.996Z,24.67
2022-11-10T09:59:50.029Z,23.67
2022-11-10T10:02:45.176Z,23.48
2022-11-10T10:06:03.372Z,23.17
2022-11-10T10:08:57.555Z,23.42
2022-11-10T10:11:54.062Z,22.83
2022-11-10T10:15:06.480Z,24.73
2022-11-10T10:18:01.858Z,24.65
2022-11-10T10:21:13.165Z,23.90
2022-11-10T10:24:12.653Z,22.52
2022-11-10T10:27:05.997Z,23.25
2022-11-10T10:29:51.954Z,23.90
2022-11-10T10:32:37.167Z,23.88
2022-11-10T10:35:23.451Z,24.60
2022-11-10T10:38:34.302Z,23.13
2022-11-10T10:41:26.483Z,22.92
2022-11-10T10:44:18.091Z,22.35
2022-11-10T10:47:04.429Z,22.13
2022-11-10T10:49:49.877Z,22.08
2022-11-10T10:52:35.658Z,21.85
2022-11-10T10:55:20.995Z,21.90
2022-11-10T10:58:23.880Z,21.77
2022-11-10T11:01:15.386Z,23.75
2022-11-10T11:04:05.560Z,22.83
2022-11-10T11:07:03.491Z,21.60
2022-11-10T11:09:48.990Z,21.33
2022-11-10T11:12:34.457Z,22.30
2022-11-10T11:15:29.221Z,22.40
2022-11-10T11:18:17.956Z,23.20
2022-11-10T11:21:33.445Z,22.90
2022-11-10T11:24:31.180Z,23.00
2022-11-10T11:27:53.006Z,23.85
2022-11-10T11:30:52.989Z,23.38
2022-11-10T11:34:13.506Z,22.45
2022-11-10T11:37:19.785Z,23.77
2022-11-10T11:40:22.905Z,24.02
2022-11-10T11:43:20.138Z,22.40
2022-11-10T11:46:38.830Z,23.08
2022-11-10T11:49:36.385Z,20.98
2022-11-10T11:52:42.261Z,21.08
2022-11-10T11:55:36.686Z,22.90
2022-11-10T11:58:31.942Z,21.70
2022-11-10T12:01:35.370Z,23.80
2022-11-10T12:04:39.682Z,22.25
2022-11-10T12:07:43.005Z,23.08
2022-11-10T12:10:52.518Z,22.88
2022-11-10T12:13:58.354Z,22.27
2022-11-10T12:16:55.762Z,22.05
2022-11-10T12:20:07.085Z,23.50
2022-11-10T12:23:21.169Z,22.50
2022-11-10T12:26:28.707Z,22.55
2022-11-10T12:29:32.092Z,24.60
2022-11-10T12:32:21.829Z,22.25
2022-11-10T12:35:23.329Z,23.40
2022-11-10T12:38:17.339Z,21.35
2022-11-10T12:41:09.126Z,22.38
2022-11-10T12:44:12.689Z,21.13
2022-11-10T12:47:02.717Z,22.10
2022-11-10T12:50:02.968Z,21.40
2022-11-10T12:52:54.319Z,22.20
2022-11-10T12:55:46.782Z,22.27
2022-11-10T12:58:32.178Z,21.90
2022-11-10T13:01:20.109Z,21.42
2022-11-10T13:04:05.846Z,23.42
2022-11-10T13:09:39.745Z,22.15
2022-11-10T13:12:25.890Z,21.60
2022-11-10T13:15:38.914Z,22.00
2022-11-10T13:18:32.239Z,21.65
2022-11-10T13:21:17.533Z,22.20
2022-11-10T13:24:02.946Z,22.60
2022-11-10T13:29:43.365Z,20.95
2022-11-10T13:32:30.192Z,21.15
2022-11-10T13:35:37.879Z,21.00
2022-11-10T13:38:32.165Z,21.48
2022-11-10T13:41:17.531Z,21.88
2022-11-10T13:44:03.128Z,22.65
2022-11-10T13:50:23.725Z,22.13
2022-11-10T13:56:32.760Z,21.70
2022-11-10T13:59:26.209Z,21.40
2022-11-10T14:02:33.741Z,21.65
2022-11-10T14:05:41.842Z,22.23
2022-11-10T14:08:29.612Z,21.70
2022-11-10T14:11:50.691Z,21.90
2022-11-10T14:14:59.653Z,22.38
2022-11-10T14:17:50.178Z,23.58
2022-11-10T14:20:42.543Z,23.08
2022-11-10T14:23:48.824Z,23.25
2022-11-10T14:29:34.716Z,23.00
2022-11-10T14:32:27.557Z,22.88
2022-11-10T14:35:23.071Z,21.92
2022-11-10T14:38:20.440Z,23.13
2022-11-10T14:41:13.883Z,22.38
2022-11-10T14:44:13.255Z,22.95
2022-11-10T14:47:33.461Z,23.23
2022-11-10T14:50:25.084Z,25.85
2022-11-10T14:53:22.874Z,24.98
2022-11-10T14:56:22.256Z,22.45
2022-11-10T14:59:12.538Z,23.20
2022-11-10T15:02:00.834Z,23.92
2022-11-10T15:04:49.915Z,23.73
2022-11-10T15:07:35.192Z,22.73
2022-11-10T15:10:40.645Z,21.58
2022-11-10T15:13:31.709Z,20.90
2022-11-10T15:16:33.279Z,21.67
2022-11-10T15:19:31.877Z,22.55
2022-11-10T15:22:35.801Z,22.58
2022-11-10T15:25:24.339Z,22.42
2022-11-10T15:28:12.738Z,22.48
2022-11-10T15:31:12.226Z,20.73
2022-11-10T15:34:03.324Z,21.13
2022-11-10T15:36:48.563Z,27.65
2022-11-10T15:39:34.452Z,29.65
2022-11-10T15:42:24.165Z,23.90
2022-11-10T15:45:09.836Z,23.67
2022-11-10T15:47:56.020Z,24.92
2022-11-10T15:50:43.993Z,34.90
2022-11-10T15:53:37.221Z,30.75
2022-11-10T15:56:24.678Z,28.60
2022-11-10T15:59:10.566Z,32.20
2022-11-10T16:01:56.337Z,28.55
2022-11-10T16:04:41.925Z,24.10
2022-11-10T16:10:12.509Z,25.47
2022-11-10T16:12:57.868Z,22.38
2022-11-10T16:18:30.618Z,25.30
2022-11-10T16:21:19.622Z,23.58
2022-11-10T16:24:05.261Z,24.33
2022-11-10T16:26:50.782Z,25.60
2022-11-10T16:32:21.834Z,23.65
2022-11-10T16:35:13.141Z,36.13
2022-11-10T16:37:58.577Z,22.08
2022-11-10T16:43:31.387Z,19.73
2022-11-10T16:46:23.062Z,20.30
2022-11-10T16:49:35.725Z,23.05
2022-11-10T16:52:22.445Z,20.02
2022-11-10T16:55:12.251Z,18.98
2022-11-10T16:57:57.843Z,20.70
2022-11-10T17:00:44.147Z,19.88
2022-11-10T17:03:32.226Z,18.50
2022-11-10T17:06:19.399Z,22.85
2022-11-10T17:09:23.006Z,22.27
2022-11-10T17:12:12.487Z,24.33
2022-11-10T17:14:57.610Z,25.27
2022-11-10T17:20:36.082Z,21.60
2022-11-10T17:23:23.698Z,32.72
2022-11-10T17:26:14.688Z,31.73
2022-11-10T17:28:59.883Z,27.00
2022-11-10T17:31:45.569Z,30.52
2022-11-10T17:34:30.654Z,30.08
2022-11-10T17:37:16.591Z,29.42
2022-11-10T17:40:14.933Z,21.98
2022-11-10T17:43:00.449Z,22.35
2022-11-10T17:45:45.986Z,26.23
2022-11-10T17:48:31.198Z,19.42
2022-11-10T17:51:21.592Z,19.33
2022-11-10T17:54:15.323Z,18.60
2022-11-10T17:57:00.995Z,19.95
2022-11-10T18:02:31.918Z,23.75
2022-11-10T18:08:03.205Z,20.42
2022-11-10T18:13:37.136Z,19.65
2022-11-10T18:16:22.354Z,32.50
2022-11-10T18:19:09.977Z,26.40
2022-11-10T18:21:55.125Z,23.02
2022-11-10T18:24:40.391Z,24.70
2022-11-10T18:30:13.027Z,40.10
2022-11-10T18:32:58.437Z,32.10
2022-11-10T18:35:43.664Z,34.72
2022-11-10T18:41:40.501Z,33.05
2022-11-10T18:44:26.277Z,31.30
2022-11-10T18:47:12.881Z,27.90
2022-11-10T18:49:58.042Z,33.83
2022-11-10T18:52:43.775Z,28.90
2022-11-10T18:55:29.152Z,29.50
2022-11-10T19:01:07.918Z,31.95
2022-11-10T19:03:53.730Z,22.65
2022-11-10T19:09:24.693Z,17.70
2022-11-10T19:12:10.867Z,20.85
2022-11-10T19:14:55.906Z,27.13
2022-11-10T19:17:41.405Z,29.65
2022-11-10T19:20:26.486Z,24.33
2022-11-10T19:23:11.721Z,23.60
2022-11-10T19:28:46.496Z,26.58
2022-11-10T19:31:31.949Z,25.63
2022-11-10T19:34:19.960Z,23.63
2022-11-10T19:37:07.140Z,23.85
2022-11-10T19:39:52.305Z,23.67
2022-11-10T19:42:37.421Z,21.83
2022-11-10T19:48:08.094Z,17.17
2022-11-10T19:53:43.474Z,19.08
2022-11-10T19:56:32.078Z,22.10
2022-11-10T19:59:19.128Z,20.55
2022-11-10T20:02:04.492Z,21.80
2022-11-10T20:05:08.403Z,19.02
2022-11-10T20:08:12.276Z,21.65
2022-11-10T20:11:10.541Z,21.00
2022-11-10T20:14:01.369Z,23.98
2022-11-10T20:16:46.379Z,33.10
2022-11-10T20:22:27.025Z,24.33
2022-11-10T20:25:12.746Z,20.88
2022-11-10T20:28:01.266Z,20.00
2022-11-10T20:30:46.757Z,17.30
2022-11-10T20:33:32.785Z,16.50
2022-11-10T20:36:24.073Z,17.10
2022-11-10T20:39:09.477Z,18.13
2022-11-10T20:41:55.069Z,18.63
2022-11-10T20:44:40.759Z,17.92
2022-11-10T20:47:28.079Z,16.70
2022-11-10T20:50:17.220Z,17.52
2022-11-10T20:53:05.670Z,17.65
2022-11-10T20:56:00.692Z,17.90
2022-11-10T20:58:46.261Z,18.42
2022-11-10T21:01:33.379Z,19.35
2022-11-10T21:04:18.889Z,18.77
2022-11-10T21:07:04.829Z,18.52
2022-11-10T21:12:49.963Z,18.77
2022-11-10T21:15:40.198Z,18.77
2022-11-10T21:18:34.631Z,19.50
2022-11-10T21:21:34.164Z,18.95
2022-11-10T21:24:20.243Z,17.83
2022-11-10T21:27:05.838Z,18.15
2022-11-10T21:29:50.921Z,19.23
2022-11-10T21:32:36.419Z,20.98
2022-11-10T21:38:09.473Z,25.45
2022-11-10T21:40:57.275Z,21.13
2022-11-10T21:43:42.751Z,36.65
2022-11-10T21:49:13.173Z,30.80
2022-11-10T21:51:58.258Z,42.90
2022-11-10T21:54:43.286Z,41.38
2022-11-10T21:57:28.527Z,25.17
2022-11-10T22:03:03.638Z,35.73
2022-11-10T22:05:48.812Z,39.72
2022-11-10T22:08:34.905Z,32.35
2022-11-10T22:11:39.614Z,43.50
2022-11-10T22:14:43.797Z,29.30
2022-11-10T22:17:48.144Z,27.33
2022-11-10T22:20:33.667Z,25.55
2022-11-10T22:26:04.201Z,26.67
2022-11-10T22:31:34.927Z,24.15
2022-11-10T22:34:21.244Z,47.40
2022-11-10T22:37:06.563Z,23.95
2022-11-10T22:43:26.251Z,21.02
2022-11-10T22:46:12.037Z,39.25
2022-11-10T22:48:57.249Z,38.13
2022-11-10T22:51:44.805Z,27.10
2022-11-10T22:54:29.773Z,37.25
2022-11-10T22:57:15.263Z,44.85
2022-11-10T23:02:45.916Z,30.92
2022-11-10T23:08:19.741Z,31.85
2022-11-10T23:13:51.138Z,21.65
2022-11-10T23:16:36.610Z,22.75
2022-11-10T23:19:22.135Z,21.52
2022-11-10T23:22:07.260Z,34.70
2022-11-10T23:27:42.897Z,26.10
2022-11-10T23:30:28.569Z,28.83
2022-11-10T23:33:13.898Z,21.00
2022-11-10T23:38:45.264Z,52.38
2022-11-10T23:41:30.383Z,30.80
2022-11-10T23:47:00.954Z,28.35
2022-11-10T23:52:31.533Z,28.08
2022-11-10T23:55:17.018Z,23.25
2022-11-10T23:58:02.980Z,21.23
